createdAt,value
2018-08-10T00:01:35.056Z,0.67
2018-08-10T00:04:03.385Z,0.50
2018-08-10T00:06:31.647Z,0.50
2018-08-10T00:08:59.961Z,0.50
2018-08-10T00:11:28.247Z,0.60
2018-08-10T00:13:56.540Z,0.50
2018-08-10T00:16:24.840Z,0.37
2018-08-10T00:18:53.066Z,0.40
2018-08-10T00:21:21.350Z,0.50
2018-08-10T00:23:49.637Z,0.57
2018-08-10T00:26:17.903Z,0.50
2018-08-10T00:28:46.205Z,0.50
2018-08-10T00:31:14.406Z,0.50
2018-08-10T00:33:45.968Z,0.60
2018-08-10T00:36:14.229Z,0.50
2018-08-10T00:38:42.516Z,0.50
2018-08-10T00:41:10.760Z,0.80
2018-08-10T00:43:39.005Z,0.60
2018-08-10T00:46:07.302Z,0.50
2018-08-10T00:48:35.624Z,0.80
2018-08-10T00:51:03.913Z,0.60
2018-08-10T00:53:32.194Z,0.70
2018-08-10T00:57:03.831Z,0.50
2018-08-10T00:59:33.243Z,0.60
2018-08-10T01:02:01.515Z,0.70
2018-08-10T01:04:29.761Z,0.60
2018-08-10T01:06:58.043Z,0.80
2018-08-10T01:09:26.340Z,0.60
2018-08-10T01:11:54.623Z,0.50
2018-08-10T01:14:22.907Z,0.60
2018-08-10T01:16:51.185Z,0.63
2018-08-10T01:19:19.499Z,0.60
2018-08-10T01:21:50.813Z,0.70
2018-08-10T01:24:19.080Z,0.80
2018-08-10T01:26:47.380Z,1.03
2018-08-10T01:29:15.945Z,0.83
2018-08-10T01:31:44.293Z,1.00
2018-08-10T01:34:12.640Z,1.00
2018-08-10T01:36:40.850Z,0.90
2018-08-10T01:39:10.323Z,0.90
2018-08-10T01:41:38.851Z,0.80
2018-08-10T01:44:07.843Z,0.87
2018-08-10T01:46:36.100Z,0.73
2018-08-10T01:49:04.431Z,0.70
2018-08-10T01:51:32.698Z,1.00
2018-08-10T01:54:00.945Z,0.60
2018-08-10T01:56:29.196Z,0.73
2018-08-10T01:58:57.431Z,0.90
2018-08-10T02:01:25.650Z,0.70
2018-08-10T02:08:47.908Z,0.67
2018-08-10T02:11:16.204Z,0.70
2018-08-10T02:13:44.443Z,0.80
2018-08-10T02:16:12.718Z,0.80
2018-08-10T02:18:41.005Z,0.60
2018-08-10T02:21:09.199Z,0.60
2018-08-10T02:23:37.578Z,0.67
2018-08-10T02:26:05.855Z,0.90
2018-08-10T02:28:34.093Z,0.70
2018-08-10T02:31:02.333Z,0.70
2018-08-10T02:33:30.614Z,0.70
2018-08-10T02:35:58.852Z,0.60
2018-08-10T02:38:27.147Z,0.80
2018-08-10T02:40:55.396Z,0.80
2018-08-10T02:43:23.696Z,0.70
2018-08-10T02:45:55.339Z,0.93
2018-08-10T02:48:23.695Z,0.77
2018-08-10T02:50:51.969Z,0.80
2018-08-10T02:53:20.262Z,0.80
2018-08-10T02:55:48.499Z,0.80
2018-08-10T02:58:16.767Z,0.80
2018-08-10T03:00:45.037Z,0.90
2018-08-10T03:03:13.302Z,1.10
2018-08-10T03:05:41.600Z,0.70
2018-08-10T03:08:10.607Z,1.10
2018-08-10T03:10:38.856Z,0.90
2018-08-10T03:13:07.137Z,1.10
2018-08-10T03:15:35.434Z,0.90
2018-08-10T03:18:03.976Z,1.00
2018-08-10T03:20:32.235Z,1.00
2018-08-10T03:23:00.499Z,0.80
2018-08-10T03:25:29.060Z,1.20
2018-08-10T03:28:00.462Z,0.80
2018-08-10T03:30:28.803Z,1.13
2018-08-10T03:32:57.047Z,1.03
2018-08-10T03:35:25.288Z,1.00
2018-08-10T03:37:53.601Z,1.07
2018-08-10T03:40:21.877Z,1.30
2018-08-10T03:42:50.107Z,1.47
2018-08-10T03:45:18.401Z,0.80
2018-08-10T03:47:46.648Z,1.20
2018-08-10T03:50:14.953Z,1.00
2018-08-10T03:52:43.576Z,1.00
2018-08-10T03:55:12.331Z,0.80
2018-08-10T03:57:40.835Z,0.93
2018-08-10T04:00:10.751Z,0.83
2018-08-10T04:02:39.414Z,0.70
2018-08-10T04:05:08.605Z,0.90
2018-08-10T04:07:36.875Z,0.60
2018-08-10T04:10:05.947Z,0.70
2018-08-10T04:12:34.213Z,0.93
2018-08-10T04:15:02.463Z,0.80
2018-08-10T04:17:30.688Z,0.67
2018-08-10T04:20:01.200Z,0.70
2018-08-10T04:22:30.340Z,0.80
2018-08-10T04:24:58.567Z,0.63
2018-08-10T04:27:26.835Z,0.60
2018-08-10T04:29:55.530Z,0.90
2018-08-10T04:32:23.798Z,1.00
2018-08-10T04:34:52.088Z,0.60
2018-08-10T04:37:20.364Z,0.67
2018-08-10T04:39:48.750Z,0.63
2018-08-10T04:42:17.364Z,0.80
2018-08-10T04:44:45.623Z,0.70
2018-08-10T04:47:13.840Z,1.23
2018-08-10T04:49:42.135Z,0.70
2018-08-10T04:52:10.442Z,0.80
2018-08-10T04:54:38.684Z,0.53
2018-08-10T04:57:06.980Z,0.70
2018-08-10T04:59:42.279Z,0.70
2018-08-10T05:02:10.781Z,0.80
2018-08-10T05:04:39.058Z,0.60
2018-08-10T05:07:07.312Z,0.60
2018-08-10T05:09:35.569Z,0.60
2018-08-10T05:12:06.456Z,0.57
2018-08-10T05:14:35.688Z,0.70
2018-08-10T05:17:03.938Z,0.50
2018-08-10T05:19:32.208Z,0.83
2018-08-10T05:22:00.412Z,0.67
2018-08-10T05:24:28.772Z,0.50
2018-08-10T05:26:57.032Z,0.60
2018-08-10T05:29:26.501Z,0.50
2018-08-10T05:31:54.882Z,0.80
2018-08-10T05:34:23.173Z,0.60
2018-08-10T05:36:51.416Z,0.50
2018-08-10T05:39:19.738Z,0.80
2018-08-10T05:41:47.995Z,0.50
2018-08-10T05:44:16.284Z,0.60
2018-08-10T05:46:44.554Z,0.50
2018-08-10T05:49:12.797Z,0.70
2018-08-10T05:51:41.030Z,0.70
2018-08-10T05:54:12.688Z,0.53
2018-08-10T05:56:40.919Z,0.60
2018-08-10T05:59:09.211Z,0.67
2018-08-10T06:01:37.517Z,0.77
2018-08-10T06:04:06.092Z,0.60
2018-08-10T06:06:34.221Z,0.70
2018-08-10T06:09:02.452Z,0.50
2018-08-10T06:11:30.737Z,0.70
2018-08-10T06:13:58.964Z,0.80
2018-08-10T06:16:27.240Z,0.70
2018-08-10T06:18:55.476Z,0.80
2018-08-10T06:21:23.779Z,0.87
2018-08-10T06:23:52.032Z,0.87
2018-08-10T06:26:20.303Z,1.00
2018-08-10T06:28:48.544Z,0.60
2018-08-10T06:31:16.866Z,0.67
2018-08-10T06:33:45.211Z,0.90
2018-08-10T06:36:16.888Z,1.00
2018-08-10T06:38:45.131Z,0.73
2018-08-10T06:41:13.395Z,1.20
2018-08-10T06:43:41.655Z,0.67
2018-08-10T06:46:09.912Z,1.00
2018-08-10T06:48:38.340Z,1.30
2018-08-10T06:51:06.681Z,0.97
2018-08-10T06:53:34.979Z,0.90
2018-08-10T06:56:03.342Z,1.00
2018-08-10T06:58:31.552Z,1.13
2018-08-10T07:00:59.795Z,0.70
2018-08-10T07:03:28.050Z,0.80
2018-08-10T07:05:56.447Z,0.70
2018-08-10T07:08:24.686Z,0.83
2018-08-10T07:10:52.950Z,0.90
2018-08-10T07:13:21.314Z,0.83
2018-08-10T07:15:49.528Z,0.80
2018-08-10T07:18:21.383Z,1.10
2018-08-10T07:20:49.668Z,0.90
2018-08-10T07:23:17.939Z,1.17
2018-08-10T07:25:46.216Z,0.80
2018-08-10T07:28:14.489Z,1.03
2018-08-10T07:30:42.764Z,0.97
2018-08-10T07:33:11.255Z,1.10
2018-08-10T07:35:39.467Z,1.00
2018-08-10T07:38:07.830Z,0.93
2018-08-10T07:40:36.120Z,0.80
2018-08-10T07:43:04.436Z,0.70
2018-08-10T07:45:32.671Z,0.90
2018-08-10T07:48:00.930Z,0.83
2018-08-10T07:50:29.148Z,0.87
2018-08-10T07:52:57.404Z,1.00
2018-08-10T07:55:25.644Z,1.03
2018-08-10T07:57:53.905Z,0.70
2018-08-10T08:00:24.948Z,0.60
2018-08-10T08:02:53.187Z,0.60
2018-08-10T08:05:21.428Z,0.80
2018-08-10T08:07:49.666Z,0.73
2018-08-10T08:10:17.956Z,0.70
2018-08-10T08:12:46.189Z,0.90
2018-08-10T08:15:14.538Z,0.57
2018-08-10T08:17:42.849Z,0.67
2018-08-10T08:20:11.150Z,0.87
2018-08-10T08:22:39.412Z,0.97
2018-08-10T08:25:07.667Z,1.07
2018-08-10T08:27:35.932Z,0.90
2018-08-10T08:30:05.500Z,0.73
2018-08-10T08:32:33.750Z,0.90
2018-08-10T08:35:02.121Z,0.90
2018-08-10T08:37:30.328Z,0.70
2018-08-10T08:40:08.967Z,0.80
2018-08-10T08:42:37.297Z,0.77
2018-08-10T08:46:10.608Z,0.77
2018-08-10T08:48:47.068Z,0.70
2018-08-10T08:51:25.873Z,1.10
2018-08-10T08:55:38.160Z,0.80
2018-08-10T08:58:06.937Z,0.87
2018-08-10T09:00:35.543Z,0.70
2018-08-10T09:03:03.787Z,0.87
2018-08-10T09:05:32.028Z,0.70
2018-08-10T09:08:00.324Z,0.67
2018-08-10T09:10:30.096Z,0.70
2018-08-10T09:12:58.372Z,0.70
2018-08-10T09:15:26.693Z,1.10
2018-08-10T09:17:54.932Z,0.70
2018-08-10T09:20:23.254Z,0.80
2018-08-10T09:22:51.484Z,0.60
2018-08-10T09:25:19.739Z,0.90
2018-08-10T09:27:48.060Z,1.10
2018-08-10T09:30:17.522Z,1.10
2018-08-10T09:32:45.785Z,0.83
2018-08-10T09:35:14.644Z,0.90
2018-08-10T09:37:43.216Z,0.73
2018-08-10T09:40:13.644Z,0.83
2018-08-10T09:42:41.971Z,0.70
2018-08-10T09:45:11.234Z,0.60
2018-08-10T09:47:39.768Z,0.60
2018-08-10T09:50:09.957Z,0.60
2018-08-10T09:52:38.305Z,0.50
2018-08-10T09:55:13.712Z,0.70
2018-08-10T09:57:42.013Z,0.70
2018-08-10T10:00:14.442Z,0.90
2018-08-10T10:02:46.981Z,0.57
2018-08-10T10:05:15.761Z,0.73
2018-08-10T10:07:45.051Z,0.70
2018-08-10T10:10:13.316Z,0.60
2018-08-10T10:12:41.604Z,0.60
2018-08-10T10:15:09.917Z,1.07
2018-08-10T10:17:38.233Z,0.77
2018-08-10T10:20:07.177Z,0.60
2018-08-10T10:22:36.452Z,0.77
2018-08-10T10:25:04.840Z,0.83
2018-08-10T10:27:33.083Z,0.70
2018-08-10T10:30:01.364Z,0.70
2018-08-10T10:32:29.742Z,0.73
2018-08-10T10:34:58.059Z,1.00
2018-08-10T10:37:26.342Z,1.00
2018-08-10T10:39:54.564Z,0.80
2018-08-10T10:42:22.862Z,0.67
2018-08-10T10:44:51.261Z,0.80
2018-08-10T10:47:19.605Z,0.70
2018-08-10T10:49:47.949Z,0.80
2018-08-10T10:52:16.565Z,0.70
2018-08-10T10:54:44.793Z,0.70
2018-08-10T10:57:13.078Z,0.77
2018-08-10T10:59:41.446Z,0.80
2018-08-10T11:02:09.736Z,0.80
2018-08-10T11:04:39.365Z,0.73
2018-08-10T11:07:07.643Z,0.50
2018-08-10T11:09:35.956Z,0.50
2018-08-10T11:12:04.381Z,0.57
2018-08-10T11:14:32.613Z,0.63
2018-08-10T11:17:00.918Z,0.60
2018-08-10T11:19:29.549Z,0.67
2018-08-10T11:21:57.751Z,0.67
2018-08-10T11:24:26.008Z,0.60
2018-08-10T11:26:54.335Z,0.57
2018-08-10T11:29:23.259Z,0.50
2018-08-10T11:31:51.906Z,0.67
2018-08-10T11:34:20.201Z,0.57
2018-08-10T11:36:48.480Z,1.27
2018-08-10T11:39:16.724Z,0.60
2018-08-10T11:41:44.996Z,0.50
2018-08-10T11:44:13.264Z,0.40
2018-08-10T11:46:43.084Z,0.70
2018-08-10T11:49:11.452Z,0.77
2018-08-10T11:51:39.712Z,0.80
2018-08-10T11:54:07.972Z,0.40
2018-08-10T11:56:36.200Z,0.90
2018-08-10T11:59:04.464Z,0.73
2018-08-10T12:01:32.701Z,0.77
2018-08-10T12:04:00.948Z,0.70
2018-08-10T12:06:29.163Z,0.57
2018-08-10T12:08:57.557Z,0.60
2018-08-10T12:11:25.750Z,0.60
2018-08-10T12:13:54.031Z,0.60
2018-08-10T12:16:22.302Z,0.40
2018-08-10T12:18:50.577Z,0.50
2018-08-10T12:21:18.793Z,0.40
2018-08-10T12:23:47.032Z,0.50
2018-08-10T12:26:15.297Z,0.43
2018-08-10T12:28:45.238Z,0.50
2018-08-10T12:31:13.519Z,0.73
2018-08-10T12:33:41.780Z,0.50
2018-08-10T12:36:10.144Z,0.60
2018-08-10T12:38:39.045Z,0.40
2018-08-10T12:41:07.329Z,0.50
2018-08-10T12:43:35.576Z,0.70
2018-08-10T12:46:03.881Z,0.50
2018-08-10T12:48:34.088Z,0.57
2018-08-10T12:51:02.385Z,0.47
2018-08-10T12:53:30.668Z,0.40
2018-08-10T12:55:58.961Z,0.40
2018-08-10T12:58:27.298Z,0.60
2018-08-10T13:00:55.635Z,0.70
2018-08-10T13:03:23.883Z,0.53
2018-08-10T13:05:52.103Z,0.70
2018-08-10T13:08:20.500Z,0.40
2018-08-10T13:10:49.095Z,0.40
2018-08-10T13:13:17.392Z,0.50
2018-08-10T13:16:49.210Z,0.60
2018-08-10T13:19:17.460Z,0.40
2018-08-10T13:21:45.732Z,0.60
2018-08-10T13:24:14.044Z,0.33
2018-08-10T13:26:42.557Z,0.50
2018-08-10T13:29:11.411Z,0.60
2018-08-10T13:31:39.732Z,0.70
2018-08-10T13:34:07.968Z,0.50
2018-08-10T13:36:36.316Z,0.40
2018-08-10T13:39:08.906Z,0.50
2018-08-10T13:41:37.180Z,0.47
2018-08-10T13:44:05.437Z,0.50
2018-08-10T13:46:33.791Z,0.40
2018-08-10T13:49:02.350Z,0.40
2018-08-10T13:51:30.619Z,0.77
2018-08-10T13:53:58.891Z,0.60
2018-08-10T13:56:27.128Z,0.57
2018-08-10T13:58:55.748Z,0.50
2018-08-10T14:01:24.066Z,0.47
2018-08-10T14:03:52.277Z,0.50
2018-08-10T14:06:21.675Z,0.40
2018-08-10T14:08:55.191Z,0.53
2018-08-10T14:11:23.426Z,0.30
2018-08-10T14:13:52.264Z,0.40
2018-08-10T14:16:20.590Z,0.40
2018-08-10T14:18:48.853Z,0.50
2018-08-10T14:21:17.141Z,0.50
2018-08-10T14:23:45.471Z,0.50
2018-08-10T14:26:13.739Z,0.43
2018-08-10T14:28:42.072Z,0.37
2018-08-10T14:31:10.365Z,0.43
2018-08-10T14:33:38.759Z,0.40
2018-08-10T14:36:07.003Z,0.73
2018-08-10T14:38:35.241Z,0.33
2018-08-10T14:41:03.563Z,0.40
2018-08-10T14:43:31.974Z,0.50
2018-08-10T14:46:00.189Z,0.50
2018-08-10T14:48:28.513Z,0.43
2018-08-10T14:51:00.033Z,0.50
2018-08-10T14:53:28.318Z,0.63
2018-08-10T14:55:56.536Z,0.33
2018-08-10T14:58:24.792Z,0.50
2018-08-10T15:00:53.021Z,0.53
2018-08-10T15:03:22.132Z,0.60
2018-08-10T15:05:50.395Z,0.50
2018-08-10T15:08:18.622Z,0.50
2018-08-10T15:10:46.978Z,0.40
2018-08-10T15:13:15.260Z,0.40
2018-08-10T15:15:43.519Z,0.30
2018-08-10T15:18:11.870Z,0.60
2018-08-10T15:20:40.079Z,0.40
2018-08-10T15:23:08.371Z,0.43
2018-08-10T15:25:36.703Z,0.40
2018-08-10T15:28:05.031Z,0.53
2018-08-10T15:30:33.267Z,0.60
2018-08-10T15:33:04.353Z,0.50
2018-08-10T15:35:32.716Z,0.43
2018-08-10T15:38:00.968Z,0.50
2018-08-10T15:40:29.217Z,0.47
2018-08-10T15:42:57.479Z,0.30
2018-08-10T15:45:25.761Z,0.40
2018-08-10T15:47:54.036Z,0.60
2018-08-10T15:50:22.319Z,0.40
2018-08-10T15:52:50.591Z,0.40
2018-08-10T15:55:18.805Z,0.50
2018-08-10T15:57:47.030Z,0.40
2018-08-10T16:00:19.039Z,0.37
2018-08-10T16:02:47.797Z,0.33
2018-08-10T16:05:16.069Z,0.40
2018-08-10T16:07:44.727Z,0.50
2018-08-10T16:10:13.097Z,0.40
2018-08-10T16:12:41.411Z,0.50
2018-08-10T16:15:12.233Z,0.82
2018-08-10T16:17:40.560Z,0.60
2018-08-10T16:20:10.563Z,0.60
2018-08-10T16:22:38.909Z,0.40
2018-08-10T16:25:09.816Z,0.40
2018-08-10T16:27:38.036Z,0.47
2018-08-10T16:30:07.618Z,0.67
2018-08-10T16:32:35.848Z,0.50
2018-08-10T16:35:07.792Z,0.30
2018-08-10T16:37:36.038Z,0.40
2018-08-10T16:40:05.676Z,0.30
2018-08-10T16:42:33.958Z,0.30
2018-08-10T16:45:02.485Z,0.30
2018-08-10T16:47:30.766Z,0.23
2018-08-10T16:49:59.074Z,0.50
2018-08-10T16:55:01.876Z,0.40
2018-08-10T16:57:30.248Z,0.50
2018-08-10T16:59:58.661Z,0.33
2018-08-10T17:02:26.904Z,0.47
2018-08-10T17:04:55.168Z,0.30
2018-08-10T17:07:30.124Z,0.80
2018-08-10T17:09:58.424Z,0.40
2018-08-10T17:12:26.684Z,0.23
2018-08-10T17:14:54.964Z,0.57
2018-08-10T17:17:23.257Z,0.60
2018-08-10T17:19:51.508Z,0.50
2018-08-10T17:22:19.777Z,0.60
2018-08-10T17:24:47.994Z,0.40
2018-08-10T17:27:16.271Z,0.60
2018-08-10T17:29:44.884Z,0.30
2018-08-10T17:32:13.131Z,0.30
2018-08-10T17:34:41.381Z,0.53
2018-08-10T17:37:12.352Z,0.63
2018-08-10T17:39:40.623Z,0.50
2018-08-10T17:42:08.900Z,0.40
2018-08-10T17:44:37.115Z,0.40
2018-08-10T17:47:05.501Z,0.40
2018-08-10T17:49:33.744Z,0.80
2018-08-10T17:52:02.019Z,0.40
2018-08-10T17:54:30.331Z,0.30
2018-08-10T17:56:58.603Z,0.50
2018-08-10T17:59:27.808Z,0.53
2018-08-10T18:01:56.107Z,0.50
2018-08-10T18:04:24.520Z,0.47
2018-08-10T18:06:52.837Z,0.53
2018-08-10T18:09:21.103Z,0.30
2018-08-10T18:11:49.420Z,0.50
2018-08-10T18:14:17.709Z,0.30
2018-08-10T18:16:46.079Z,0.30
2018-08-10T18:19:18.436Z,0.40
2018-08-10T18:21:46.714Z,0.43
2018-08-10T18:24:14.956Z,0.33
2018-08-10T18:26:43.331Z,0.50
2018-08-10T18:29:11.612Z,0.30
2018-08-10T18:31:39.850Z,0.53
2018-08-10T18:34:08.189Z,0.47
2018-08-10T18:36:36.428Z,0.40
2018-08-10T18:39:09.236Z,0.50
2018-08-10T18:41:38.087Z,0.50
2018-08-10T18:44:06.403Z,0.37
2018-08-10T18:46:34.680Z,0.43
2018-08-10T18:49:02.947Z,0.37
2018-08-10T18:51:31.199Z,0.40
2018-08-10T18:53:59.407Z,0.40
2018-08-10T18:56:27.752Z,0.50
2018-08-10T18:58:56.051Z,0.50
2018-08-10T19:01:24.296Z,0.47
2018-08-10T19:03:52.557Z,0.50
2018-08-10T19:06:20.855Z,0.40
2018-08-10T19:08:49.116Z,0.37
2018-08-10T19:11:17.425Z,0.50
2018-08-10T19:13:45.759Z,0.60
2018-08-10T19:16:14.002Z,0.40
2018-08-10T19:18:42.264Z,0.50
2018-08-10T19:21:10.526Z,0.40
2018-08-10T19:23:38.821Z,0.63
2018-08-10T19:26:07.113Z,0.40
2018-08-10T19:28:35.369Z,0.40
2018-08-10T19:31:03.607Z,0.50
2018-08-10T19:33:31.932Z,0.60
2018-08-10T19:36:00.159Z,0.50
2018-08-10T19:38:28.451Z,0.50
2018-08-10T19:40:56.724Z,0.53
2018-08-10T19:43:26.892Z,0.70
2018-08-10T19:45:55.203Z,0.40
2018-08-10T19:48:23.446Z,0.60
2018-08-10T19:50:51.711Z,0.50
2018-08-10T19:53:19.976Z,0.50
2018-08-10T19:55:48.191Z,0.50
2018-08-10T19:58:16.440Z,0.50
2018-08-10T20:00:44.805Z,0.40
2018-08-10T20:03:13.088Z,0.50
2018-08-10T20:05:41.360Z,0.63
2018-08-10T20:08:09.635Z,0.50
2018-08-10T20:10:37.878Z,0.43
2018-08-10T20:13:06.145Z,0.50
2018-08-10T20:15:34.491Z,0.50
2018-08-10T20:18:02.670Z,0.60
2018-08-10T20:20:30.936Z,0.53
2018-08-10T20:22:59.235Z,0.40
2018-08-10T20:25:29.951Z,0.73
2018-08-10T20:27:58.201Z,0.70
2018-08-10T20:30:26.497Z,0.50
2018-08-10T20:32:54.742Z,0.73
2018-08-10T20:35:23.045Z,0.70
2018-08-10T20:37:51.330Z,0.60
2018-08-10T20:40:20.383Z,0.50
2018-08-10T20:42:49.035Z,0.50
2018-08-10T20:45:18.391Z,0.60
2018-08-10T20:47:46.663Z,0.30
2018-08-10T20:50:16.499Z,0.70
2018-08-10T20:52:45.260Z,0.40
2018-08-10T20:55:13.612Z,0.70
2018-08-10T20:57:42.356Z,0.80
2018-08-10T21:00:11.339Z,0.53
2018-08-10T21:02:40.343Z,0.47
2018-08-10T21:05:08.587Z,0.77
2018-08-10T21:07:37.120Z,0.80
2018-08-10T21:10:07.722Z,0.63
2018-08-10T21:12:36.018Z,0.57
2018-08-10T21:15:04.918Z,0.50
2018-08-10T21:17:35.464Z,0.70
2018-08-10T21:20:04.523Z,0.60
2018-08-10T21:22:32.810Z,0.57
2018-08-10T21:25:01.067Z,0.47
2018-08-10T21:27:29.329Z,0.60
2018-08-10T21:29:57.557Z,0.60
2018-08-10T21:32:25.807Z,0.50
2018-08-10T21:34:54.088Z,0.63
2018-08-10T21:37:22.346Z,0.60
2018-08-10T21:39:50.623Z,0.40
2018-08-10T21:42:19.147Z,0.70
2018-08-10T21:44:47.499Z,0.77
2018-08-10T21:47:15.794Z,0.70
2018-08-10T21:49:44.060Z,0.60
2018-08-10T21:52:12.291Z,0.67
2018-08-10T21:54:40.583Z,0.83
2018-08-10T21:57:08.829Z,1.10
2018-08-10T21:59:40.416Z,0.70
2018-08-10T22:02:09.981Z,0.80
2018-08-10T22:04:38.232Z,0.60
2018-08-10T22:07:06.541Z,0.70
2018-08-10T22:09:38.464Z,0.50
2018-08-10T22:12:06.777Z,1.00
2018-08-10T22:14:40.287Z,0.73
2018-08-10T22:17:13.848Z,0.70
2018-08-10T22:19:42.349Z,0.63
2018-08-10T22:22:10.648Z,0.50
2018-08-10T22:24:38.903Z,0.57
2018-08-10T22:27:07.139Z,0.70
2018-08-10T22:29:35.684Z,0.50
2018-08-10T22:32:03.988Z,0.40
2018-08-10T22:34:32.356Z,0.77
2018-08-10T22:37:00.580Z,0.70
2018-08-10T22:39:28.869Z,0.63
2018-08-10T22:41:57.135Z,0.50
2018-08-10T22:44:25.435Z,0.50
2018-08-10T22:46:53.732Z,0.57
2018-08-10T22:49:21.975Z,0.63
2018-08-10T22:51:50.211Z,0.60
2018-08-10T22:54:18.430Z,0.53
2018-08-10T22:56:46.684Z,0.50
2018-08-10T22:59:15.476Z,0.53
2018-08-10T23:01:44.488Z,0.70
2018-08-10T23:04:12.779Z,0.60
2018-08-10T23:06:41.024Z,0.60
2018-08-10T23:09:10.575Z,0.60
2018-08-10T23:11:41.137Z,0.60
2018-08-10T23:14:11.176Z,0.60
2018-08-10T23:16:39.516Z,0.57
2018-08-10T23:19:07.839Z,0.70
2018-08-10T23:21:36.093Z,0.70
2018-08-10T23:24:04.454Z,0.60
2018-08-10T23:26:32.704Z,0.67
2018-08-10T23:29:01.001Z,0.50
2018-08-10T23:31:29.226Z,0.60
2018-08-10T23:33:57.637Z,0.70
2018-08-10T23:36:25.914Z,0.50
2018-08-10T23:38:54.216Z,0.40
2018-08-10T23:41:22.449Z,0.60
2018-08-10T23:43:50.695Z,0.83
2018-08-10T23:46:18.923Z,0.70
2018-08-10T23:48:47.232Z,0.50
2018-08-10T23:51:15.482Z,0.60
2018-08-10T23:53:47.585Z,0.30
2018-08-10T23:56:15.807Z,0.60
2018-08-10T23:58:44.177Z,0.53
